Miniplon — FIDV — position and weather

sailwx.info

Track history (hours):
 
Tides and Currents Weather Stations Pressure Air Temp Water Temp Dewpoint Dewpoint Depression Visibility Wind Speed Wind Dir Waves Ship Positions

Miniplon

Last reported at 2014-Sep-15 18:33 UTC. Time now 2014-Sep-21 16:12 UTC.
Position N 46°29' W 001°47'.

Length 22 m.

Type: SAR. MMSI: 228024600.

Date/timePositionNaut miles runAvg speedWind from/ knotsBaromVisibWave heightAir tempDewpointWater temp
2014-Sep-15 18:33N 46°29' W 001°47'5 4.9
2014-Sep-15 17:27N 46°25' W 001°42'1 0.6
2014-Sep-15 15:32N 46°26' W 001°41'6 6.0
2014-Sep-15 14:33N 46°30' W 001°47'  
2014-Sep-12 16:03N 46°30' W 001°47'0 0.3
2014-Sep-12 15:33N 46°30' W 001°47'0 0.1
2014-Sep-12 14:31N 46°30' W 001°48'0 0.0
2014-Sep-12 13:31N 46°30' W 001°48'0 0.0
2014-Sep-12 12:31N 46°30' W 001°48'0 0.0
2014-Sep-12 11:31N 46°30' W 001°48'0 0.0
2014-Sep-12 10:31N 46°30' W 001°48'0 0.0
2014-Sep-12 09:31N 46°30' W 001°48'0 0.0
2014-Sep-12 08:31N 46°30' W 001°48'0 0.0
2014-Sep-12 07:31N 46°30' W 001°48'0 0.0
2014-Sep-12 06:31N 46°30' W 001°48'  
2014-Sep-08 18:12N 46°30' W 001°47'4 5.6
2014-Sep-08 17:33N 46°32' W 001°52'9 7.4
2014-Sep-08 16:17N 46°41' W 001°56'1 0.6
2014-Sep-08 14:04N 46°41' W 001°57'3 5.9
2014-Sep-08 13:30N 46°38' W 001°56'1010.2
2014-Sep-08 12:33N 46°29' W 001°51'2 0.0
2014-Sep-06 15:33N 46°30' W 001°48'0 0.1
2014-Sep-06 14:33N 46°30' W 001°48'0 0.4
2014-Sep-06 13:33N 46°30' W 001°47'0 0.3
2014-Sep-06 12:31N 46°30' W 001°48'0 0.4
2014-Sep-06 11:31N 46°30' W 001°47'0 0.0
2014-Sep-06 10:31N 46°30' W 001°47'0 0.0
2014-Sep-06 09:34N 46°30' W 001°47'0 0.0
2014-Sep-06 08:31N 46°30' W 001°47'0 0.0
2014-Sep-06 07:31N 46°30' W 001°47'0 0.0
2014-Sep-06 06:31N 46°30' W 001°47'0 0.0
2014-Sep-06 05:34N 46°30' W 001°47'0 0.0
2014-Sep-06 04:34N 46°30' W 001°47'0 0.0
2014-Sep-06 03:34N 46°30' W 001°47'0 0.0
2014-Sep-06 02:31N 46°30' W 001°47'0 0.0
2014-Sep-06 01:31N 46°30' W 001°47'0 0.0
2014-Sep-06 00:31N 46°30' W 001°47'0 0.0
2014-Sep-05 23:34N 46°30' W 001°47'0 0.0
2014-Sep-05 22:31N 46°30' W 001°47'0 0.0
2014-Sep-05 21:34N 46°30' W 001°47'0 0.0
2014-Sep-05 20:34N 46°30' W 001°47'0 0.0
2014-Sep-05 19:31N 46°30' W 001°47'  
Track history (hours):
 
Tides and Currents Weather Stations Pressure Air Temp Water Temp Dewpoint Dewpoint Depression Visibility Wind Speed Wind Dir Waves Ship Positions

Miniplon

Last reported at 2014-Sep-15 18:33 UTC. Time now 2014-Sep-21 16:12 UTC.
Position N 46°29' W 001°47'.

Length 22 m.

Type: SAR. MMSI: 228024600.

Date/timePositionNaut miles runAvg speedWind from/ knotsBaromVisibWave heightAir tempDewpointWater temp
2014-Sep-15 18:33N 46°29' W 001°47'5 4.9
2014-Sep-15 17:27N 46°25' W 001°42'1 0.6
2014-Sep-15 15:32N 46°26' W 001°41'6 6.0
2014-Sep-15 14:33N 46°30' W 001°47'  
2014-Sep-12 16:03N 46°30' W 001°47'0 0.3
2014-Sep-12 15:33N 46°30' W 001°47'0 0.1
2014-Sep-12 14:31N 46°30' W 001°48'0 0.0
2014-Sep-12 13:31N 46°30' W 001°48'0 0.0
2014-Sep-12 12:31N 46°30' W 001°48'0 0.0
2014-Sep-12 11:31N 46°30' W 001°48'0 0.0
2014-Sep-12 10:31N 46°30' W 001°48'0 0.0
2014-Sep-12 09:31N 46°30' W 001°48'0 0.0
2014-Sep-12 08:31N 46°30' W 001°48'0 0.0
2014-Sep-12 07:31N 46°30' W 001°48'0 0.0
2014-Sep-12 06:31N 46°30' W 001°48'  
2014-Sep-08 18:12N 46°30' W 001°47'4 5.6
2014-Sep-08 17:33N 46°32' W 001°52'9 7.4
2014-Sep-08 16:17N 46°41' W 001°56'1 0.6
2014-Sep-08 14:04N 46°41' W 001°57'3 5.9
2014-Sep-08 13:30N 46°38' W 001°56'1010.2
2014-Sep-08 12:33N 46°29' W 001°51'2 0.0
2014-Sep-06 15:33N 46°30' W 001°48'0 0.1
2014-Sep-06 14:33N 46°30' W 001°48'0 0.4
2014-Sep-06 13:33N 46°30' W 001°47'0 0.3
2014-Sep-06 12:31N 46°30' W 001°48'0 0.4
2014-Sep-06 11:31N 46°30' W 001°47'0 0.0
2014-Sep-06 10:31N 46°30' W 001°47'0 0.0
2014-Sep-06 09:34N 46°30' W 001°47'0 0.0
2014-Sep-06 08:31N 46°30' W 001°47'0 0.0
2014-Sep-06 07:31N 46°30' W 001°47'0 0.0
2014-Sep-06 06:31N 46°30' W 001°47'0 0.0
2014-Sep-06 05:34N 46°30' W 001°47'0 0.0
2014-Sep-06 04:34N 46°30' W 001°47'0 0.0
2014-Sep-06 03:34N 46°30' W 001°47'0 0.0
2014-Sep-06 02:31N 46°30' W 001°47'0 0.0
2014-Sep-06 01:31N 46°30' W 001°47'0 0.0
2014-Sep-06 00:31N 46°30' W 001°47'0 0.0
2014-Sep-05 23:34N 46°30' W 001°47'0 0.0
2014-Sep-05 22:31N 46°30' W 001°47'0 0.0
2014-Sep-05 21:34N 46°30' W 001°47'0 0.0
2014-Sep-05 20:34N 46°30' W 001°47'0 0.0
2014-Sep-05 19:31N 46°30' W 001°47'  

Dump ship's entire track history